sensor_id;sensor_type;location;lat;lon;timestamp;P1;durP1;ratioP1;P2;durP2;ratioP2
68224;SDS011;57497;43.322;21.932;2024-02-23T00:00:35;50.1;;;29.3;;
68224;SDS011;57497;43.322;21.932;2024-02-23T00:05:36;53.3;;;30.2;;
68224;SDS011;57497;43.322;21.932;2024-02-23T00:10:33;67.1;;;28.9;;
68224;SDS011;57497;43.322;21.932;2024-02-23T00:15:34;54.6;;;26.6;;
68224;SDS011;57497;43.322;21.932;2024-02-23T00:20:34;39;;;22.3;;
68224;SDS011;57497;43.322;21.932;2024-02-23T00:25:33;43;;;23.2;;
68224;SDS011;57497;43.322;21.932;2024-02-23T00:30:34;38.8;;;20.8;;
68224;SDS011;57497;43.322;21.932;2024-02-23T00:35:33;41.2;;;24.9;;
68224;SDS011;57497;43.322;21.932;2024-02-23T00:40:33;47;;;22.8;;
68224;SDS011;57497;43.322;21.932;2024-02-23T00:45:33;23.7;;;14.8;;
68224;SDS011;57497;43.322;21.932;2024-02-23T00:50:34;24.1;;;14.7;;
68224;SDS011;57497;43.322;21.932;2024-02-23T00:55:33;12.3;;;7.7;;
68224;SDS011;57497;43.322;21.932;2024-02-23T01:00:35;15.5;;;7.3;;
68224;SDS011;57497;43.322;21.932;2024-02-23T01:05:33;13.3;;;10.1;;
68224;SDS011;57497;43.322;21.932;2024-02-23T01:10:33;12.2;;;7.6;;
68224;SDS011;57497;43.322;21.932;2024-02-23T01:15:33;13.7;;;9.4;;
68224;SDS011;57497;43.322;21.932;2024-02-23T01:20:33;8.6;;;6.8;;
68224;SDS011;57497;43.322;21.932;2024-02-23T01:25:33;12.4;;;6.5;;
68224;SDS011;57497;43.322;21.932;2024-02-23T01:30:34;8.9;;;5.5;;
68224;SDS011;57497;43.322;21.932;2024-02-23T01:35:34;8.7;;;4.4;;
68224;SDS011;57497;43.322;21.932;2024-02-23T01:40:33;11.4;;;7.7;;
68224;SDS011;57497;43.322;21.932;2024-02-23T01:45:33;17.1;;;9.8;;
68224;SDS011;57497;43.322;21.932;2024-02-23T01:50:33;21.7;;;13.2;;
68224;SDS011;57497;43.322;21.932;2024-02-23T01:55:33;22.8;;;15.7;;
68224;SDS011;57497;43.322;21.932;2024-02-23T02:00:35;25;;;14.5;;
68224;SDS011;57497;43.322;21.932;2024-02-23T02:05:34;35.1;;;17.4;;
68224;SDS011;57497;43.322;21.932;2024-02-23T02:10:33;28.1;;;14.9;;
68224;SDS011;57497;43.322;21.932;2024-02-23T02:15:33;21.8;;;13.1;;
68224;SDS011;57497;43.322;21.932;2024-02-23T02:20:33;27.6;;;14.4;;
68224;SDS011;57497;43.322;21.932;2024-02-23T02:25:33;20.9;;;13.1;;
68224;SDS011;57497;43.322;21.932;2024-02-23T02:30:34;16.8;;;11.2;;
68224;SDS011;57497;43.322;21.932;2024-02-23T02:35:33;26.4;;;13.2;;
68224;SDS011;57497;43.322;21.932;2024-02-23T02:40:33;20.6;;;13.1;;
68224;SDS011;57497;43.322;21.932;2024-02-23T02:45:33;26.2;;;14.7;;
68224;SDS011;57497;43.322;21.932;2024-02-23T02:50:33;19.5;;;11.7;;
68224;SDS011;57497;43.322;21.932;2024-02-23T02:55:33;32.2;;;14.5;;
68224;SDS011;57497;43.322;21.932;2024-02-23T03:00:35;16.6;;;9.6;;
68224;SDS011;57497;43.322;21.932;2024-02-23T03:05:36;22.8;;;11.7;;
68224;SDS011;57497;43.322;21.932;2024-02-23T03:10:33;21.1;;;11;;
68224;SDS011;57497;43.322;21.932;2024-02-23T03:15:33;21.8;;;12.4;;
68224;SDS011;57497;43.322;21.932;2024-02-23T03:20:33;23.7;;;13.6;;
68224;SDS011;57497;43.322;21.932;2024-02-23T03:25:33;18.5;;;11.1;;
68224;SDS011;57497;43.322;21.932;2024-02-23T03:30:33;23.7;;;10.1;;
68224;SDS011;57497;43.322;21.932;2024-02-23T03:35:33;23.7;;;11.4;;
68224;SDS011;57497;43.322;21.932;2024-02-23T03:40:33;16.5;;;10.2;;
68224;SDS011;57497;43.322;21.932;2024-02-23T03:45:34;19.9;;;9.3;;
68224;SDS011;57497;43.322;21.932;2024-02-23T03:50:34;6.6;;;4.7;;
68224;SDS011;57497;43.322;21.932;2024-02-23T03:55:33;11;;;6.4;;
68224;SDS011;57497;43.322;21.932;2024-02-23T04:00:35;10.2;;;4.7;;
68224;SDS011;57497;43.322;21.932;2024-02-23T04:05:33;9.2;;;5;;
68224;SDS011;57497;43.322;21.932;2024-02-23T04:10:33;8.4;;;5.2;;
68224;SDS011;57497;43.322;21.932;2024-02-23T04:15:33;4.8;;;3.7;;
68224;SDS011;57497;43.322;21.932;2024-02-23T04:20:33;7.2;;;4.6;;
68224;SDS011;57497;43.322;21.932;2024-02-23T04:25:34;21.2;;;6.4;;
68224;SDS011;57497;43.322;21.932;2024-02-23T04:30:34;11.7;;;7.3;;
68224;SDS011;57497;43.322;21.932;2024-02-23T04:35:33;15.5;;;10;;
68224;SDS011;57497;43.322;21.932;2024-02-23T04:40:33;10.8;;;6.7;;
68224;SDS011;57497;43.322;21.932;2024-02-23T04:45:33;20.1;;;9.4;;
68224;SDS011;57497;43.322;21.932;2024-02-23T04:50:33;15.7;;;8.5;;
68224;SDS011;57497;43.322;21.932;2024-02-23T04:55:33;8.2;;;6.2;;
68224;SDS011;57497;43.322;21.932;2024-02-23T05:00:35;12.1;;;7.6;;
68224;SDS011;57497;43.322;21.932;2024-02-23T05:05:33;11.8;;;8.7;;
68224;SDS011;57497;43.322;21.932;2024-02-23T05:10:34;15.4;;;9.9;;
68224;SDS011;57497;43.322;21.932;2024-02-23T05:15:33;11.3;;;8.8;;
68224;SDS011;57497;43.322;21.932;2024-02-23T05:20:33;14.7;;;9.7;;
68224;SDS011;57497;43.322;21.932;2024-02-23T05:25:33;18.5;;;9.8;;
68224;SDS011;57497;43.322;21.932;2024-02-23T05:30:33;18.6;;;10.9;;
68224;SDS011;57497;43.322;21.932;2024-02-23T05:35:33;16.6;;;7.2;;
68224;SDS011;57497;43.322;21.932;2024-02-23T05:40:34;10.9;;;7.5;;
68224;SDS011;57497;43.322;21.932;2024-02-23T05:45:34;13.6;;;6.7;;
68224;SDS011;57497;43.322;21.932;2024-02-23T05:50:33;8;;;6.4;;
68224;SDS011;57497;43.322;21.932;2024-02-23T05:55:33;13.4;;;7.1;;
68224;SDS011;57497;43.322;21.932;2024-02-23T06:00:35;9.4;;;5.2;;
68224;SDS011;57497;43.322;21.932;2024-02-23T06:05:34;9;;;6.9;;
68224;SDS011;57497;43.322;21.932;2024-02-23T06:10:33;6.6;;;3.9;;
68224;SDS011;57497;43.322;21.932;2024-02-23T06:15:34;8.7;;;6.7;;
68224;SDS011;57497;43.322;21.932;2024-02-23T06:20:34;9.3;;;7.3;;
68224;SDS011;57497;43.322;21.932;2024-02-23T06:25:33;8.7;;;6.1;;
68224;SDS011;57497;43.322;21.932;2024-02-23T06:30:33;8.9;;;6.7;;
68224;SDS011;57497;43.322;21.932;2024-02-23T06:35:33;9.6;;;6.8;;
68224;SDS011;57497;43.322;21.932;2024-02-23T06:40:33;8.7;;;6.5;;
68224;SDS011;57497;43.322;21.932;2024-02-23T06:45:33;19.4;;;6.3;;
68224;SDS011;57497;43.322;21.932;2024-02-23T06:50:33;22.2;;;13.9;;
68224;SDS011;57497;43.322;21.932;2024-02-23T06:55:34;37.6;;;22.6;;
68224;SDS011;57497;43.322;21.932;2024-02-23T07:00:36;22.6;;;11;;
68224;SDS011;57497;43.322;21.932;2024-02-23T07:05:34;33.8;;;19.1;;
68224;SDS011;57497;43.322;21.932;2024-02-23T07:10:34;27.7;;;17.1;;
68224;SDS011;57497;43.322;21.932;2024-02-23T07:15:34;27.5;;;17.7;;
68224;SDS011;57497;43.322;21.932;2024-02-23T07:20:33;49.1;;;14.8;;
68224;SDS011;57497;43.322;21.932;2024-02-23T07:25:33;14.1;;;9;;
68224;SDS011;57497;43.322;21.932;2024-02-23T07:30:33;6.7;;;4.6;;
68224;SDS011;57497;43.322;21.932;2024-02-23T07:35:33;8.4;;;6.3;;
68224;SDS011;57497;43.322;21.932;2024-02-23T07:40:34;7.9;;;4.2;;
68224;SDS011;57497;43.322;21.932;2024-02-23T07:45:33;7.3;;;4.6;;
68224;SDS011;57497;43.322;21.932;2024-02-23T07:50:34;12.3;;;5.7;;
68224;SDS011;57497;43.322;21.932;2024-02-23T07:55:33;8.2;;;5.6;;
68224;SDS011;57497;43.322;21.932;2024-02-23T08:00:35;6.1;;;4.8;;
68224;SDS011;57497;43.322;21.932;2024-02-23T08:05:34;6.2;;;4.3;;
68224;SDS011;57497;43.322;21.932;2024-02-23T08:10:33;5.8;;;4.1;;
68224;SDS011;57497;43.322;21.932;2024-02-23T08:15:33;8.8;;;4.5;;
68224;SDS011;57497;43.322;21.932;2024-02-23T08:20:33;10;;;6.3;;
68224;SDS011;57497;43.322;21.932;2024-02-23T08:25:33;12.1;;;7.2;;
68224;SDS011;57497;43.322;21.932;2024-02-23T08:30:34;6.9;;;5.4;;
68224;SDS011;57497;43.322;21.932;2024-02-23T08:35:33;7.7;;;5.2;;
68224;SDS011;57497;43.322;21.932;2024-02-23T08:40:34;10.7;;;5.5;;
68224;SDS011;57497;43.322;21.932;2024-02-23T08:45:33;6.2;;;4.6;;
68224;SDS011;57497;43.322;21.932;2024-02-23T08:50:34;9.3;;;5.2;;
68224;SDS011;57497;43.322;21.932;2024-02-23T08:55:34;7.2;;;5.2;;
68224;SDS011;57497;43.322;21.932;2024-02-23T09:00:35;9.5;;;5.8;;
68224;SDS011;57497;43.322;21.932;2024-02-23T09:05:33;6.9;;;4.9;;
68224;SDS011;57497;43.322;21.932;2024-02-23T09:10:33;4.5;;;3.7;;
68224;SDS011;57497;43.322;21.932;2024-02-23T09:15:33;6.3;;;4.7;;
68224;SDS011;57497;43.322;21.932;2024-02-23T09:20:33;19.9;;;4.2;;
68224;SDS011;57497;43.322;21.932;2024-02-23T09:25:34;5.1;;;3.4;;
68224;SDS011;57497;43.322;21.932;2024-02-23T09:30:33;5.9;;;3.5;;
68224;SDS011;57497;43.322;21.932;2024-02-23T09:35:33;7;;;4;;
68224;SDS011;57497;43.322;21.932;2024-02-23T09:40:33;11.8;;;6.2;;
68224;SDS011;57497;43.322;21.932;2024-02-23T09:45:33;11;;;5.8;;
68224;SDS011;57497;43.322;21.932;2024-02-23T09:50:33;7.4;;;5.1;;
68224;SDS011;57497;43.322;21.932;2024-02-23T09:55:34;5.8;;;3.9;;
68224;SDS011;57497;43.322;21.932;2024-02-23T10:00:36;7.9;;;4.2;;
68224;SDS011;57497;43.322;21.932;2024-02-23T10:05:33;7.2;;;4.6;;
68224;SDS011;57497;43.322;21.932;2024-02-23T10:10:33;9;;;4.3;;
68224;SDS011;57497;43.322;21.932;2024-02-23T10:15:33;7.4;;;3.8;;
68224;SDS011;57497;43.322;21.932;2024-02-23T10:20:33;4.9;;;3.9;;
68224;SDS011;57497;43.322;21.932;2024-02-23T10:25:33;8.2;;;3.8;;
68224;SDS011;57497;43.322;21.932;2024-02-23T10:30:34;7.1;;;4.3;;
68224;SDS011;57497;43.322;21.932;2024-02-23T10:35:34;5.3;;;4.3;;
68224;SDS011;57497;43.322;21.932;2024-02-23T10:40:33;7.8;;;5.1;;
68224;SDS011;57497;43.322;21.932;2024-02-23T10:45:33;5.7;;;4.3;;
68224;SDS011;57497;43.322;21.932;2024-02-23T10:50:33;12.5;;;5.5;;
68224;SDS011;57497;43.322;21.932;2024-02-23T10:55:34;5.5;;;4.3;;
68224;SDS011;57497;43.322;21.932;2024-02-23T11:00:35;5.4;;;3.8;;
68224;SDS011;57497;43.322;21.932;2024-02-23T11:05:33;6.5;;;4.3;;
68224;SDS011;57497;43.322;21.932;2024-02-23T11:10:41;7;;;5.6;;
68224;SDS011;57497;43.322;21.932;2024-02-23T11:15:34;9.7;;;4.8;;
68224;SDS011;57497;43.322;21.932;2024-02-23T11:20:34;5.9;;;4.4;;
68224;SDS011;57497;43.322;21.932;2024-02-23T11:25:35;6.1;;;4.1;;
68224;SDS011;57497;43.322;21.932;2024-02-23T11:30:34;6.4;;;4.5;;
68224;SDS011;57497;43.322;21.932;2024-02-23T11:35:33;6.1;;;5.1;;
68224;SDS011;57497;43.322;21.932;2024-02-23T11:40:33;4.6;;;3;;
68224;SDS011;57497;43.322;21.932;2024-02-23T11:45:34;8.8;;;5.3;;
68224;SDS011;57497;43.322;21.932;2024-02-23T11:50:34;7.2;;;5.3;;
68224;SDS011;57497;43.322;21.932;2024-02-23T11:55:33;7.1;;;5.1;;
68224;SDS011;57497;43.322;21.932;2024-02-23T12:00:35;9.8;;;4.8;;
68224;SDS011;57497;43.322;21.932;2024-02-23T12:05:33;8.6;;;5.3;;
68224;SDS011;57497;43.322;21.932;2024-02-23T12:10:33;7.5;;;4;;
68224;SDS011;57497;43.322;21.932;2024-02-23T12:15:33;8.8;;;4.1;;
68224;SDS011;57497;43.322;21.932;2024-02-23T12:20:33;6.8;;;4;;
68224;SDS011;57497;43.322;21.932;2024-02-23T12:25:33;9.6;;;5.6;;
68224;SDS011;57497;43.322;21.932;2024-02-23T12:30:33;5.6;;;4.2;;
68224;SDS011;57497;43.322;21.932;2024-02-23T12:35:33;5.8;;;4.2;;
68224;SDS011;57497;43.322;21.932;2024-02-23T12:40:33;8.9;;;4.9;;
68224;SDS011;57497;43.322;21.932;2024-02-23T12:45:34;6.4;;;4.4;;
68224;SDS011;57497;43.322;21.932;2024-02-23T12:50:33;8.4;;;5.4;;
68224;SDS011;57497;43.322;21.932;2024-02-23T12:55:33;6.2;;;4.5;;
68224;SDS011;57497;43.322;21.932;2024-02-23T13:00:35;11.3;;;3.6;;
68224;SDS011;57497;43.322;21.932;2024-02-23T13:05:33;12.1;;;6.5;;
68224;SDS011;57497;43.322;21.932;2024-02-23T13:10:33;9.8;;;5.4;;
68224;SDS011;57497;43.322;21.932;2024-02-23T13:15:33;5.6;;;4;;
68224;SDS011;57497;43.322;21.932;2024-02-23T13:20:34;4.4;;;3.2;;
68224;SDS011;57497;43.322;21.932;2024-02-23T13:25:33;5.6;;;3.8;;
68224;SDS011;57497;43.322;21.932;2024-02-23T13:30:34;12.3;;;6.9;;
68224;SDS011;57497;43.322;21.932;2024-02-23T13:35:34;8.7;;;5.9;;
68224;SDS011;57497;43.322;21.932;2024-02-23T13:40:33;7.5;;;2.6;;
68224;SDS011;57497;43.322;21.932;2024-02-23T13:45:47;11.4;;;5.7;;
68224;SDS011;57497;43.322;21.932;2024-02-23T13:50:33;11.3;;;6.9;;
68224;SDS011;57497;43.322;21.932;2024-02-23T13:55:33;11.4;;;4.4;;
68224;SDS011;57497;43.322;21.932;2024-02-23T14:00:35;5.4;;;3.8;;
68224;SDS011;57497;43.322;21.932;2024-02-23T14:05:33;5.6;;;4.1;;
68224;SDS011;57497;43.322;21.932;2024-02-23T14:10:34;8.6;;;6;;
68224;SDS011;57497;43.322;21.932;2024-02-23T14:15:33;12.2;;;8.4;;
68224;SDS011;57497;43.322;21.932;2024-02-23T14:20:33;6.4;;;5.2;;
68224;SDS011;57497;43.322;21.932;2024-02-23T14:25:33;6.4;;;4.9;;
68224;SDS011;57497;43.322;21.932;2024-02-23T14:30:33;10.6;;;9.5;;
68224;SDS011;57497;43.322;21.932;2024-02-23T14:35:33;8.1;;;7.4;;
68224;SDS011;57497;43.322;21.932;2024-02-23T14:40:34;9.5;;;7.3;;
68224;SDS011;57497;43.322;21.932;2024-02-23T14:45:33;7.9;;;6.8;;
68224;SDS011;57497;43.322;21.932;2024-02-23T14:50:33;7.5;;;6.7;;
68224;SDS011;57497;43.322;21.932;2024-02-23T14:55:33;11.2;;;8.4;;
68224;SDS011;57497;43.322;21.932;2024-02-23T15:00:35;10.8;;;6.2;;
68224;SDS011;57497;43.322;21.932;2024-02-23T15:05:33;12.4;;;7.6;;
68224;SDS011;57497;43.322;21.932;2024-02-23T15:10:33;11.1;;;7.5;;
68224;SDS011;57497;43.322;21.932;2024-02-23T15:15:33;6;;;4.5;;
68224;SDS011;57497;43.322;21.932;2024-02-23T15:20:33;14.4;;;9;;
68224;SDS011;57497;43.322;21.932;2024-02-23T15:25:34;17.7;;;8.6;;
68224;SDS011;57497;43.322;21.932;2024-02-23T15:30:33;11.1;;;6.7;;
68224;SDS011;57497;43.322;21.932;2024-02-23T15:35:33;13.2;;;8.2;;
68224;SDS011;57497;43.322;21.932;2024-02-23T15:40:33;11.2;;;7.8;;
68224;SDS011;57497;43.322;21.932;2024-02-23T15:45:33;11.8;;;7;;
68224;SDS011;57497;43.322;21.932;2024-02-23T15:50:33;10.1;;;7.8;;
68224;SDS011;57497;43.322;21.932;2024-02-23T15:55:33;13.4;;;7.6;;
68224;SDS011;57497;43.322;21.932;2024-02-23T16:00:35;11.3;;;6.7;;
68224;SDS011;57497;43.322;21.932;2024-02-23T16:05:33;14.3;;;7.2;;
68224;SDS011;57497;43.322;21.932;2024-02-23T16:10:33;9.9;;;5.3;;
68224;SDS011;57497;43.322;21.932;2024-02-23T16:15:34;13.1;;;8.6;;
68224;SDS011;57497;43.322;21.932;2024-02-23T16:20:33;9.9;;;5.7;;
68224;SDS011;57497;43.322;21.932;2024-02-23T16:25:34;15;;;9;;
68224;SDS011;57497;43.322;21.932;2024-02-23T16:30:34;25.6;;;15.2;;
68224;SDS011;57497;43.322;21.932;2024-02-23T16:35:33;21.2;;;12.8;;
68224;SDS011;57497;43.322;21.932;2024-02-23T16:40:33;15.6;;;11;;
68224;SDS011;57497;43.322;21.932;2024-02-23T16:45:33;10.7;;;6.9;;
68224;SDS011;57497;43.322;21.932;2024-02-23T16:50:35;8.4;;;5.4;;
68224;SDS011;57497;43.322;21.932;2024-02-23T16:55:33;16;;;10.3;;
68224;SDS011;57497;43.322;21.932;2024-02-23T17:00:36;9.6;;;7.4;;
68224;SDS011;57497;43.322;21.932;2024-02-23T17:05:33;16.1;;;11.9;;
68224;SDS011;57497;43.322;21.932;2024-02-23T17:10:34;15.4;;;10.6;;
68224;SDS011;57497;43.322;21.932;2024-02-23T17:15:33;20.4;;;12.4;;
68224;SDS011;57497;43.322;21.932;2024-02-23T17:20:34;17.9;;;10.2;;
68224;SDS011;57497;43.322;21.932;2024-02-23T17:25:33;17.9;;;10.7;;
68224;SDS011;57497;43.322;21.932;2024-02-23T17:30:33;18.6;;;10.8;;
68224;SDS011;57497;43.322;21.932;2024-02-23T17:35:33;29.2;;;13.8;;
68224;SDS011;57497;43.322;21.932;2024-02-23T17:40:33;42.9;;;19.8;;
68224;SDS011;57497;43.322;21.932;2024-02-23T17:45:33;76.7;;;36.5;;
68224;SDS011;57497;43.322;21.932;2024-02-23T17:50:33;56.1;;;31.7;;
68224;SDS011;57497;43.322;21.932;2024-02-23T17:55:33;57.9;;;31.2;;
68224;SDS011;57497;43.322;21.932;2024-02-23T18:00:35;80.5;;;45.8;;
68224;SDS011;57497;43.322;21.932;2024-02-23T18:05:33;57.5;;;35.5;;
68224;SDS011;57497;43.322;21.932;2024-02-23T18:10:33;71.7;;;37.6;;
68224;SDS011;57497;43.322;21.932;2024-02-23T18:15:33;45.8;;;21.9;;
68224;SDS011;57497;43.322;21.932;2024-02-23T18:20:33;54.2;;;28.9;;
68224;SDS011;57497;43.322;21.932;2024-02-23T18:25:34;39.6;;;24;;
68224;SDS011;57497;43.322;21.932;2024-02-23T18:30:33;15.4;;;8.8;;
68224;SDS011;57497;43.322;21.932;2024-02-23T18:35:33;26.6;;;12.9;;
68224;SDS011;57497;43.322;21.932;2024-02-23T18:40:33;11.3;;;7.1;;
68224;SDS011;57497;43.322;21.932;2024-02-23T18:45:33;14.9;;;9.2;;
68224;SDS011;57497;43.322;21.932;2024-02-23T18:50:33;12.9;;;7;;
68224;SDS011;57497;43.322;21.932;2024-02-23T18:55:34;9.8;;;6.4;;
68224;SDS011;57497;43.322;21.932;2024-02-23T19:00:35;7.5;;;6.5;;
68224;SDS011;57497;43.322;21.932;2024-02-23T19:05:33;15.4;;;6.7;;
68224;SDS011;57497;43.322;21.932;2024-02-23T19:10:33;22.2;;;8;;
68224;SDS011;57497;43.322;21.932;2024-02-23T19:15:33;10.1;;;6.5;;
68224;SDS011;57497;43.322;21.932;2024-02-23T19:20:34;33.6;;;20.7;;
68224;SDS011;57497;43.322;21.932;2024-02-23T19:25:33;31.6;;;18.7;;
68224;SDS011;57497;43.322;21.932;2024-02-23T19:30:33;28.6;;;14.8;;
68224;SDS011;57497;43.322;21.932;2024-02-23T19:35:33;52.7;;;30.3;;
68224;SDS011;57497;43.322;21.932;2024-02-23T19:40:33;53.7;;;35.8;;
68224;SDS011;57497;43.322;21.932;2024-02-23T19:45:34;50.9;;;24.1;;
68224;SDS011;57497;43.322;21.932;2024-02-23T19:50:34;36.4;;;23.3;;
68224;SDS011;57497;43.322;21.932;2024-02-23T19:55:33;38.3;;;22.5;;
68224;SDS011;57497;43.322;21.932;2024-02-23T20:00:35;36.8;;;22.5;;
68224;SDS011;57497;43.322;21.932;2024-02-23T20:05:33;32.5;;;17.2;;
68224;SDS011;57497;43.322;21.932;2024-02-23T20:10:33;26.9;;;19.6;;
68224;SDS011;57497;43.322;21.932;2024-02-23T20:15:33;31.6;;;11.8;;
68224;SDS011;57497;43.322;21.932;2024-02-23T20:20:33;18.2;;;7.2;;
68224;SDS011;57497;43.322;21.932;2024-02-23T20:25:34;13.7;;;7.7;;
68224;SDS011;57497;43.322;21.932;2024-02-23T20:30:33;13.8;;;6.6;;
68224;SDS011;57497;43.322;21.932;2024-02-23T20:35:33;8.6;;;6.2;;
68224;SDS011;57497;43.322;21.932;2024-02-23T20:40:33;11.4;;;8.3;;
68224;SDS011;57497;43.322;21.932;2024-02-23T20:45:34;14.1;;;8.5;;
68224;SDS011;57497;43.322;21.932;2024-02-23T20:50:33;11.3;;;8.4;;
68224;SDS011;57497;43.322;21.932;2024-02-23T20:55:33;20.7;;;12.1;;
68224;SDS011;57497;43.322;21.932;2024-02-23T21:00:35;14.7;;;9.6;;
68224;SDS011;57497;43.322;21.932;2024-02-23T21:05:34;13.3;;;7.5;;
68224;SDS011;57497;43.322;21.932;2024-02-23T21:10:33;15.5;;;10.5;;
68224;SDS011;57497;43.322;21.932;2024-02-23T21:15:33;10.3;;;7.9;;
68224;SDS011;57497;43.322;21.932;2024-02-23T21:20:33;10.8;;;7.5;;
68224;SDS011;57497;43.322;21.932;2024-02-23T21:25:34;11.4;;;6.3;;
68224;SDS011;57497;43.322;21.932;2024-02-23T21:30:33;10.3;;;5.7;;
68224;SDS011;57497;43.322;21.932;2024-02-23T21:35:33;14.4;;;7.7;;
68224;SDS011;57497;43.322;21.932;2024-02-23T21:40:33;15;;;8.2;;
68224;SDS011;57497;43.322;21.932;2024-02-23T21:45:33;11.1;;;6.5;;
68224;SDS011;57497;43.322;21.932;2024-02-23T21:50:34;10.9;;;7.4;;
68224;SDS011;57497;43.322;21.932;2024-02-23T21:55:33;15.7;;;9.1;;
68224;SDS011;57497;43.322;21.932;2024-02-23T22:00:35;41.3;;;20.7;;
68224;SDS011;57497;43.322;21.932;2024-02-23T22:05:33;25.5;;;16.7;;
68224;SDS011;57497;43.322;21.932;2024-02-23T22:10:34;25.2;;;15.6;;
68224;SDS011;57497;43.322;21.932;2024-02-23T22:15:34;28.5;;;15.8;;
68224;SDS011;57497;43.322;21.932;2024-02-23T22:20:33;29.9;;;16.6;;
68224;SDS011;57497;43.322;21.932;2024-02-23T22:25:33;32.6;;;19;;
68224;SDS011;57497;43.322;21.932;2024-02-23T22:30:33;25.2;;;14.3;;
68224;SDS011;57497;43.322;21.932;2024-02-23T22:35:33;20.9;;;13.5;;
68224;SDS011;57497;43.322;21.932;2024-02-23T22:40:33;17.5;;;9.5;;
68224;SDS011;57497;43.322;21.932;2024-02-23T22:45:33;13.2;;;9;;
68224;SDS011;57497;43.322;21.932;2024-02-23T22:50:33;15.1;;;7;;
68224;SDS011;57497;43.322;21.932;2024-02-23T22:55:33;9.7;;;6.3;;
68224;SDS011;57497;43.322;21.932;2024-02-23T23:00:35;13.6;;;8.1;;
68224;SDS011;57497;43.322;21.932;2024-02-23T23:05:34;10.7;;;7.1;;
68224;SDS011;57497;43.322;21.932;2024-02-23T23:10:34;13.8;;;7.2;;
68224;SDS011;57497;43.322;21.932;2024-02-23T23:15:33;13.2;;;7.2;;
68224;SDS011;57497;43.322;21.932;2024-02-23T23:20:33;10.8;;;7.8;;
68224;SDS011;57497;43.322;21.932;2024-02-23T23:25:33;12.3;;;7.3;;
68224;SDS011;57497;43.322;21.932;2024-02-23T23:30:33;10.5;;;6.1;;
68224;SDS011;57497;43.322;21.932;2024-02-23T23:35:33;13.2;;;8.5;;
68224;SDS011;57497;43.322;21.932;2024-02-23T23:40:33;26.8;;;10;;
68224;SDS011;57497;43.322;21.932;2024-02-23T23:45:33;23.1;;;13.4;;
68224;SDS011;57497;43.322;21.932;2024-02-23T23:50:33;24;;;15.5;;
68224;SDS011;57497;43.322;21.932;2024-02-23T23:55:33;34.8;;;16.5;;
